createdAt,value
2023-03-12T00:00:09.495Z,100422.16
2023-03-12T00:02:36.409Z,100424.72
2023-03-12T00:05:03.848Z,100423.75
2023-03-12T00:07:30.647Z,100430.56
2023-03-12T00:09:57.508Z,100428.00
2023-03-12T00:12:24.394Z,100437.22
2023-03-12T00:14:51.133Z,100443.97
2023-03-12T00:17:17.908Z,100445.97
2023-03-12T00:19:45.489Z,100454.59
2023-03-12T00:22:12.356Z,100468.09
2023-03-12T00:24:39.201Z,100477.28
2023-03-12T00:27:07.493Z,100480.78
2023-03-12T00:29:34.234Z,100491.94
2023-03-12T00:32:01.016Z,100501.38
2023-03-12T00:34:27.733Z,100498.00
2023-03-12T00:36:54.526Z,100493.72
2023-03-12T00:39:21.310Z,100498.00
2023-03-12T00:41:48.223Z,100494.44
2023-03-12T00:44:14.982Z,100490.19
2023-03-12T00:46:41.919Z,100492.81
2023-03-12T00:49:08.768Z,100487.69
2023-03-12T00:51:35.817Z,100495.44
2023-03-12T00:54:02.507Z,100503.06
2023-03-12T00:56:29.486Z,100498.56
2023-03-12T00:58:56.559Z,100514.81
2023-03-12T01:01:23.573Z,100517.41
2023-03-12T01:03:52.285Z,100528.56
2023-03-12T01:06:19.332Z,100531.16
2023-03-12T01:08:46.097Z,100530.31
2023-03-12T01:11:18.192Z,100528.47
2023-03-12T01:13:45.093Z,100534.50
2023-03-12T01:16:12.112Z,100535.16
2023-03-12T01:18:39.207Z,100538.47
2023-03-12T01:21:06.390Z,100531.59
2023-03-12T01:23:33.680Z,100534.25
2023-03-12T01:26:00.523Z,100541.13
2023-03-12T01:28:27.397Z,100534.94
2023-03-12T01:30:54.072Z,100537.25
2023-03-12T01:33:22.950Z,100530.16
2023-03-12T01:35:50.482Z,100539.34
2023-03-12T01:38:19.176Z,100538.66
2023-03-12T01:40:46.521Z,100543.94
2023-03-12T01:43:22.640Z,100550.06
2023-03-12T01:46:07.800Z,100550.06
2023-03-12T01:48:41.580Z,100557.63
2023-03-12T01:51:12.398Z,100557.38
2023-03-12T01:53:42.642Z,100560.59
2023-03-12T01:56:10.622Z,100548.78
2023-03-12T01:58:40.730Z,100550.59
2023-03-12T02:01:07.736Z,100554.81
2023-03-12T02:03:35.813Z,100543.66
2023-03-12T02:06:06.913Z,100557.25
2023-03-12T02:08:38.280Z,100550.53
2023-03-12T02:11:05.294Z,100548.03
2023-03-12T02:13:32.134Z,100560.94
2023-03-12T02:15:59.264Z,100552.16
2023-03-12T02:18:26.521Z,100558.78
2023-03-12T02:21:10.931Z,100562.31
2023-03-12T02:24:08.599Z,100561.28
2023-03-12T02:26:38.071Z,100561.03
2023-03-12T02:29:07.063Z,100560.97
2023-03-12T02:31:41.307Z,100570.38
2023-03-12T02:34:09.290Z,100573.06
2023-03-12T02:36:36.593Z,100583.22
2023-03-12T02:39:04.059Z,100584.25
2023-03-12T02:41:34.419Z,100584.38
2023-03-12T02:44:07.723Z,100586.75
2023-03-12T02:46:40.313Z,100597.53
2023-03-12T02:49:07.569Z,100593.16
2023-03-12T02:51:34.421Z,100597.28
2023-03-12T02:54:01.279Z,100603.88
2023-03-12T02:56:29.217Z,100610.78
2023-03-12T02:58:56.058Z,100598.22
2023-03-12T03:01:24.892Z,100601.75
2023-03-12T03:03:51.815Z,100603.63
2023-03-12T03:06:18.655Z,100602.94
2023-03-12T03:08:45.708Z,100606.94
2023-03-12T03:11:12.560Z,100608.63
2023-03-12T03:13:39.959Z,100617.16
2023-03-12T03:16:07.388Z,100611.38
2023-03-12T03:18:34.353Z,100617.53
2023-03-12T03:21:05.234Z,100618.50
2023-03-12T03:23:34.381Z,100632.03
2023-03-12T03:26:01.463Z,100626.03
2023-03-12T03:28:29.805Z,100632.75
2023-03-12T03:31:01.442Z,100631.88
2023-03-12T03:33:34.396Z,100631.84
2023-03-12T03:36:02.956Z,100627.56
2023-03-12T03:38:33.417Z,100643.81
2023-03-12T03:41:00.962Z,100652.31
2023-03-12T03:43:29.043Z,100657.41
2023-03-12T03:46:05.961Z,100662.47
2023-03-12T03:48:36.887Z,100669.34
2023-03-12T03:51:08.034Z,100679.25
2023-03-12T03:53:36.677Z,100675.13
2023-03-12T03:56:08.501Z,100691.31
2023-03-12T03:58:39.510Z,100685.28
2023-03-12T04:01:06.853Z,100693.88
2023-03-12T04:03:34.552Z,100694.72
2023-03-12T04:06:05.194Z,100689.69
2023-03-12T04:08:35.537Z,100699.97
2023-03-12T04:11:08.899Z,100703.28
2023-03-12T04:13:40.576Z,100704.94
2023-03-12T04:16:12.180Z,100710.09
2023-03-12T04:18:40.913Z,100716.78
2023-03-12T04:21:15.958Z,100717.19
2023-03-12T04:23:46.233Z,100713.78
2023-03-12T04:26:14.870Z,100716.16
2023-03-12T04:28:41.586Z,100717.03
2023-03-12T04:31:11.683Z,100715.88
2023-03-12T04:33:56.369Z,100717.66
2023-03-12T04:36:25.186Z,100725.88
2023-03-12T04:38:57.454Z,100738.75
2023-03-12T04:41:29.044Z,100746.53
2023-03-12T04:44:04.460Z,100751.66
2023-03-12T04:46:33.661Z,100755.94
2023-03-12T04:49:02.757Z,100765.56
2023-03-12T04:51:31.952Z,100761.97
2023-03-12T04:54:01.038Z,100757.00
2023-03-12T04:56:27.883Z,100759.75
2023-03-12T04:58:55.069Z,100759.72
2023-03-12T05:01:26.349Z,100763.16
2023-03-12T05:03:54.208Z,100765.94
2023-03-12T05:06:23.344Z,100759.91
2023-03-12T05:08:50.882Z,100774.44
2023-03-12T05:11:18.246Z,100777.69
2023-03-12T05:13:45.820Z,100781.03
2023-03-12T05:16:15.530Z,100780.19
2023-03-12T05:18:42.849Z,100782.97
2023-03-12T05:21:17.839Z,100775.91
2023-03-12T05:23:45.638Z,100786.88
2023-03-12T05:26:18.864Z,100787.53
2023-03-12T05:28:45.916Z,100777.22
2023-03-12T05:31:14.822Z,100796.25
2023-03-12T05:33:43.251Z,100796.31
2023-03-12T05:36:11.254Z,100799.81
2023-03-12T05:38:38.405Z,100806.44
2023-03-12T05:41:06.796Z,100809.03
2023-03-12T05:43:36.446Z,100824.06
2023-03-12T05:46:05.521Z,100821.34
2023-03-12T05:48:34.618Z,100833.19
2023-03-12T05:51:02.516Z,100838.28
2023-03-12T05:53:30.459Z,100838.44
2023-03-12T05:56:03.642Z,100850.56
2023-03-12T05:58:31.718Z,100848.81
2023-03-12T06:00:58.611Z,100851.63
2023-03-12T06:03:26.257Z,100853.50
2023-03-12T06:05:57.232Z,100858.63
2023-03-12T06:08:26.085Z,100860.28
2023-03-12T06:10:54.978Z,100869.44
2023-03-12T06:13:22.978Z,100867.84
2023-03-12T06:15:49.921Z,100877.44
2023-03-12T06:18:16.631Z,100871.72
2023-03-12T06:20:43.606Z,100876.06
2023-03-12T06:23:11.827Z,100877.25
2023-03-12T06:25:38.798Z,100882.13
2023-03-12T06:28:05.513Z,100895.06
2023-03-12T06:30:32.400Z,100895.22
2023-03-12T06:32:59.216Z,100900.78
2023-03-12T06:35:26.033Z,100914.75
2023-03-12T06:37:52.783Z,100928.75
2023-03-12T06:40:19.711Z,100929.06
2023-03-12T06:42:46.662Z,100935.97
2023-03-12T06:45:13.389Z,100930.06
2023-03-12T06:47:40.054Z,100938.75
2023-03-12T06:50:07.123Z,100942.50
2023-03-12T06:52:33.794Z,100943.56
2023-03-12T06:55:00.542Z,100948.06
2023-03-12T06:57:27.212Z,100950.81
2023-03-12T06:59:54.155Z,100940.63
2023-03-12T07:02:20.903Z,100942.56
2023-03-12T07:04:47.833Z,100950.59
2023-03-12T07:07:14.626Z,100947.41
2023-03-12T07:09:41.477Z,100950.31
2023-03-12T07:12:08.757Z,100952.31
2023-03-12T07:14:35.545Z,100949.25
2023-03-12T07:17:02.496Z,100956.38
2023-03-12T07:19:30.409Z,100962.63
2023-03-12T07:21:57.845Z,100956.81
2023-03-12T07:24:24.646Z,100949.28
2023-03-12T07:26:51.358Z,100962.28
2023-03-12T07:29:18.147Z,100968.53
2023-03-12T07:31:44.917Z,100964.44
2023-03-12T07:34:11.938Z,100981.56
2023-03-12T07:36:38.883Z,100990.03
2023-03-12T07:39:06.156Z,100996.88
2023-03-12T07:41:32.946Z,100993.47
2023-03-12T07:43:59.801Z,100996.88
2023-03-12T07:46:26.630Z,100998.59
2023-03-12T07:48:53.846Z,101006.34
2023-03-12T07:51:20.699Z,100999.50
2023-03-12T07:53:47.780Z,101000.59
2023-03-12T07:56:14.790Z,100996.50
2023-03-12T07:58:41.833Z,101006.16
2023-03-12T08:01:09.131Z,101001.31
2023-03-12T08:03:36.635Z,101003.25
2023-03-12T08:06:04.403Z,101001.66
2023-03-12T08:08:32.401Z,101010.53
2023-03-12T08:11:00.492Z,101017.50
2023-03-12T08:13:28.237Z,101025.44
2023-03-12T08:15:55.460Z,101039.19
2023-03-12T08:18:24.883Z,101031.44
2023-03-12T08:20:53.748Z,101046.09
2023-03-12T08:23:22.130Z,101027.38
2023-03-12T08:25:49.940Z,101041.06
2023-03-12T08:28:17.612Z,101041.06
2023-03-12T08:30:53.343Z,101039.41
2023-03-12T08:33:21.914Z,101049.81
2023-03-12T08:35:50.909Z,101053.72
2023-03-12T08:38:18.067Z,101058.94
2023-03-12T08:40:45.033Z,101062.41
2023-03-12T08:43:12.106Z,101067.75
2023-03-12T08:45:39.148Z,101074.88
2023-03-12T08:48:07.481Z,101083.66
2023-03-12T08:50:34.289Z,101095.00
2023-03-12T08:53:01.323Z,101095.94
2023-03-12T08:55:28.202Z,101104.72
2023-03-12T08:57:57.883Z,101098.75
2023-03-12T09:00:25.191Z,101109.97
2023-03-12T09:02:53.705Z,101114.44
2023-03-12T09:05:20.955Z,101112.63
2023-03-12T09:07:50.037Z,101117.75
2023-03-12T09:10:17.690Z,101115.00
2023-03-12T09:12:45.167Z,101110.75
2023-03-12T09:15:12.040Z,101122.13
2023-03-12T09:17:39.165Z,101130.91
2023-03-12T09:20:09.857Z,101131.78
2023-03-12T09:22:37.404Z,101131.88
2023-03-12T09:25:05.452Z,101141.38
2023-03-12T09:27:39.885Z,101131.78
2023-03-12T09:30:08.915Z,101132.53
2023-03-12T09:32:35.892Z,101131.84
2023-03-12T09:35:02.682Z,101142.09
2023-03-12T09:37:29.611Z,101147.09
2023-03-12T09:39:56.417Z,101140.06
2023-03-12T09:42:27.629Z,101137.50
2023-03-12T09:44:57.286Z,101147.13
2023-03-12T09:47:29.656Z,101156.13
2023-03-12T09:50:19.290Z,101163.16
2023-03-12T09:52:51.723Z,101164.03
2023-03-12T09:55:22.321Z,101156.06
2023-03-12T09:57:51.475Z,101162.75
2023-03-12T10:00:24.934Z,101162.06
2023-03-12T10:03:12.825Z,101151.16
2023-03-12T10:06:03.721Z,101166.59
2023-03-12T10:09:01.881Z,101161.41
2023-03-12T10:11:44.188Z,101152.97
2023-03-12T10:14:37.688Z,101154.16
2023-03-12T10:17:28.019Z,101153.28
2023-03-12T10:20:29.200Z,101152.56
2023-03-12T10:23:23.364Z,101137.06
2023-03-12T10:25:59.509Z,101151.69
2023-03-12T10:28:33.062Z,101150.88
2023-03-12T10:31:05.336Z,101150.09
2023-03-12T10:33:44.755Z,101151.00
2023-03-12T10:36:17.663Z,101157.03
2023-03-12T10:38:44.615Z,101150.09
2023-03-12T10:41:24.010Z,101150.03
2023-03-12T10:43:51.099Z,101150.97
2023-03-12T10:46:59.893Z,101150.97
2023-03-12T10:49:30.403Z,101151.84
2023-03-12T10:52:18.861Z,101147.56
2023-03-12T10:54:51.440Z,101149.34
2023-03-12T10:57:19.510Z,101137.19
2023-03-12T10:59:48.100Z,101141.53
2023-03-12T11:02:43.851Z,101140.88
2023-03-12T11:05:19.480Z,101141.75
2023-03-12T11:07:46.452Z,101143.50
2023-03-12T11:10:18.047Z,101140.97
2023-03-12T11:12:53.122Z,101141.03
2023-03-12T11:15:25.028Z,101148.81
2023-03-12T11:17:52.370Z,101148.81
2023-03-12T11:20:26.201Z,101160.91
2023-03-12T11:22:53.144Z,101161.78
2023-03-12T11:25:29.202Z,101173.00
2023-03-12T11:28:00.791Z,101179.94
2023-03-12T11:30:38.728Z,101179.94
2023-03-12T11:33:06.397Z,101184.22
2023-03-12T11:36:04.464Z,101180.78
2023-03-12T11:38:43.048Z,101176.44
2023-03-12T11:41:12.565Z,101182.47
2023-03-12T11:43:51.105Z,101192.78
2023-03-12T11:46:42.695Z,101196.22
2023-03-12T11:49:18.990Z,101198.84
2023-03-12T11:52:00.757Z,101205.69
2023-03-12T11:54:49.414Z,101203.09
2023-03-12T11:57:44.058Z,101196.22
2023-03-12T12:00:14.682Z,101191.81
2023-03-12T12:02:44.407Z,101203.13
2023-03-12T12:05:32.695Z,101198.88
2023-03-12T12:08:10.665Z,101190.25
2023-03-12T12:10:43.488Z,101189.38
2023-03-12T12:13:38.547Z,101181.63
2023-03-12T12:16:22.068Z,101178.19
2023-03-12T12:18:54.866Z,101179.06
2023-03-12T12:21:30.746Z,101184.28
2023-03-12T12:24:10.457Z,101186.00
2023-03-12T12:27:02.138Z,101183.38
2023-03-12T12:29:36.684Z,101179.97
2023-03-12T12:32:06.042Z,101171.38
2023-03-12T12:34:52.030Z,101174.81
2023-03-12T12:37:30.668Z,101170.47
2023-03-12T12:40:12.888Z,101162.72
2023-03-12T12:42:49.876Z,101167.91
2023-03-12T12:45:17.915Z,101171.34
2023-03-12T12:48:11.245Z,101170.47
2023-03-12T12:50:40.001Z,101169.63
2023-03-12T12:53:12.991Z,101173.09
2023-03-12T12:55:52.318Z,101173.09
2023-03-12T12:58:59.595Z,101176.53
2023-03-12T13:01:30.868Z,101171.38
2023-03-12T13:04:04.735Z,101167.03
2023-03-12T13:06:57.359Z,101163.63
2023-03-12T13:09:45.499Z,101170.53
2023-03-12T13:12:30.530Z,101159.28
2023-03-12T13:14:59.162Z,101153.28
2023-03-12T13:17:36.760Z,101160.16
2023-03-12T13:20:11.129Z,101168.78
2023-03-12T13:22:47.975Z,101163.63
2023-03-12T13:25:26.090Z,101172.25
2023-03-12T13:28:14.379Z,101166.19
2023-03-12T13:30:41.683Z,101163.59
2023-03-12T13:33:14.297Z,101161.03
2023-03-12T13:35:41.657Z,101158.44
2023-03-12T13:38:18.140Z,101163.63
2023-03-12T13:41:02.160Z,101165.34
2023-03-12T13:43:37.783Z,101175.72
2023-03-12T13:46:22.540Z,101174.84
2023-03-12T13:48:49.782Z,101175.69
2023-03-12T13:51:20.090Z,101179.16
2023-03-12T13:54:05.056Z,101180.88
2023-03-12T13:56:33.813Z,101186.09
2023-03-12T13:59:05.088Z,101183.50
2023-03-12T14:01:41.802Z,101173.16
2023-03-12T14:04:15.756Z,101181.75
2023-03-12T14:07:07.503Z,101186.09
2023-03-12T14:10:01.750Z,101193.88
2023-03-12T14:12:31.301Z,101192.13
2023-03-12T14:15:35.456Z,101201.63
2023-03-12T14:18:12.545Z,101195.59
2023-03-12T14:20:39.729Z,101204.22
2023-03-12T14:23:13.305Z,101201.63
2023-03-12T14:25:44.602Z,101202.47
2023-03-12T14:28:21.110Z,101207.63
2023-03-12T14:31:02.232Z,101211.09
2023-03-12T14:33:47.685Z,101210.22
2023-03-12T14:36:19.719Z,101207.63
2023-03-12T14:38:49.152Z,101208.47
2023-03-12T14:41:25.051Z,101213.66
2023-03-12T14:43:53.897Z,101215.41
2023-03-12T14:46:23.749Z,101213.69
2023-03-12T14:48:52.982Z,101224.88
2023-03-12T14:51:24.425Z,101223.16
2023-03-12T14:53:51.929Z,101222.28
2023-03-12T14:56:33.502Z,101228.31
2023-03-12T14:59:20.144Z,101226.59
2023-03-12T15:01:48.034Z,101222.28
2023-03-12T15:04:18.434Z,101229.19
2023-03-12T15:06:48.461Z,101236.94
2023-03-12T15:09:27.119Z,101229.19
2023-03-12T15:12:01.884Z,101235.22
2023-03-12T15:14:32.864Z,101240.41
2023-03-12T15:17:00.652Z,101236.09
2023-03-12T15:19:33.551Z,101235.25
2023-03-12T15:22:01.313Z,101244.72
2023-03-12T15:24:34.463Z,101247.28
2023-03-12T15:27:30.950Z,101244.69
2023-03-12T15:29:59.708Z,101240.31
2023-03-12T15:32:28.080Z,101238.63
2023-03-12T15:34:59.081Z,101240.31
2023-03-12T15:37:34.961Z,101240.28
2023-03-12T15:40:06.882Z,101240.25
2023-03-12T15:42:43.674Z,101238.59
2023-03-12T15:45:34.870Z,101233.41
2023-03-12T15:48:04.227Z,101223.09
2023-03-12T15:50:45.291Z,101234.31
2023-03-12T15:53:12.164Z,101235.19
2023-03-12T15:55:41.907Z,101224.81
2023-03-12T15:58:28.556Z,101228.28
2023-03-12T16:01:06.039Z,101234.31
2023-03-12T16:03:33.273Z,101224.78
2023-03-12T16:06:00.129Z,101223.94
2023-03-12T16:08:41.365Z,101229.09
2023-03-12T16:11:18.610Z,101228.25
2023-03-12T16:13:49.143Z,101228.22
2023-03-12T16:16:16.423Z,101239.41
2023-03-12T16:18:44.017Z,101243.69
2023-03-12T16:21:11.319Z,101251.38
2023-03-12T16:23:38.543Z,101251.34
2023-03-12T16:26:06.164Z,101250.38
2023-03-12T16:28:35.907Z,101248.69
2023-03-12T16:31:03.440Z,101255.53
2023-03-12T16:33:30.429Z,101256.34
2023-03-12T16:35:57.890Z,101258.94
2023-03-12T16:38:24.732Z,101251.94
2023-03-12T16:40:52.854Z,101270.00
2023-03-12T16:43:24.523Z,101270.78
2023-03-12T16:45:53.960Z,101273.28
2023-03-12T16:48:24.220Z,101277.47
2023-03-12T16:50:53.784Z,101280.00
2023-03-12T16:53:21.102Z,101297.25
2023-03-12T16:55:55.735Z,101298.09
2023-03-12T16:58:24.633Z,101297.03
2023-03-12T17:00:53.444Z,101298.66
2023-03-12T17:03:28.923Z,101299.34
2023-03-12T17:05:56.511Z,101310.47
2023-03-12T17:08:23.445Z,101312.94
2023-03-12T17:10:50.704Z,101313.69
2023-03-12T17:13:31.772Z,101310.13
2023-03-12T17:15:58.883Z,101320.38
2023-03-12T17:18:26.161Z,101321.97
2023-03-12T17:20:53.183Z,101324.50
2023-03-12T17:23:20.312Z,101332.09
2023-03-12T17:25:47.455Z,101338.03
2023-03-12T17:28:15.679Z,101322.44
2023-03-12T17:30:43.403Z,101335.25
2023-03-12T17:33:13.922Z,101340.28
2023-03-12T17:35:42.173Z,101350.50
2023-03-12T17:38:10.134Z,101346.06
2023-03-12T17:40:44.207Z,101345.03
2023-03-12T17:43:12.474Z,101363.00
2023-03-12T17:45:39.866Z,101370.63
2023-03-12T17:48:06.958Z,101374.81
2023-03-12T17:50:34.017Z,101369.69
2023-03-12T17:53:01.027Z,101382.63
2023-03-12T17:55:27.946Z,101400.63
2023-03-12T17:57:54.906Z,101407.44
2023-03-12T18:00:23.269Z,101407.28
2023-03-12T18:02:50.835Z,101415.47
2023-03-12T18:05:17.929Z,101427.22
2023-03-12T18:07:48.058Z,101440.75
2023-03-12T18:10:15.501Z,101443.88
2023-03-12T18:12:42.602Z,101435.97
2023-03-12T18:15:13.210Z,101447.09
2023-03-12T18:17:42.132Z,101449.69
2023-03-12T18:20:21.272Z,101447.28
2023-03-12T18:22:53.190Z,101446.31
2023-03-12T18:25:20.036Z,101460.16
2023-03-12T18:27:46.990Z,101453.31
2023-03-12T18:30:14.542Z,101458.56
2023-03-12T18:32:41.982Z,101466.34
2023-03-12T18:35:09.624Z,101474.88
2023-03-12T18:37:36.646Z,101477.16
2023-03-12T18:40:05.608Z,101485.50
2023-03-12T18:42:33.133Z,101479.41
2023-03-12T18:45:00.560Z,101501.03
2023-03-12T18:47:27.693Z,101507.19
2023-03-12T18:49:56.017Z,101510.63
2023-03-12T18:52:24.936Z,101521.03
2023-03-12T18:54:52.213Z,101515.88
2023-03-12T18:57:19.402Z,101522.75
2023-03-12T18:59:47.358Z,101537.28
2023-03-12T19:02:14.667Z,101532.06
2023-03-12T19:04:42.173Z,101522.47
2023-03-12T19:07:10.563Z,101530.91
2023-03-12T19:09:37.646Z,101533.25
2023-03-12T19:12:05.289Z,101531.38
2023-03-12T19:14:32.505Z,101535.81
2023-03-12T19:17:15.492Z,101533.13
2023-03-12T19:19:42.893Z,101537.25
2023-03-12T19:22:10.035Z,101524.16
2023-03-12T19:24:37.505Z,101528.41
2023-03-12T19:27:05.149Z,101525.78
2023-03-12T19:29:32.226Z,101536.78
2023-03-12T19:31:59.344Z,101542.75
2023-03-12T19:34:26.555Z,101548.75
2023-03-12T19:36:54.218Z,101559.75
2023-03-12T19:39:21.931Z,101564.63
2023-03-12T19:41:51.402Z,101567.84
2023-03-12T19:44:19.263Z,101572.56
2023-03-12T19:46:46.421Z,101578.31
2023-03-12T19:49:13.562Z,101575.59
2023-03-12T19:51:41.411Z,101567.97
2023-03-12T19:54:08.570Z,101579.31
2023-03-12T19:56:36.122Z,101581.91
2023-03-12T19:59:03.440Z,101586.06
2023-03-12T20:01:30.961Z,101587.97
2023-03-12T20:03:58.135Z,101593.53
2023-03-12T20:06:25.267Z,101597.06
2023-03-12T20:08:52.665Z,101600.78
2023-03-12T20:11:20.059Z,101595.84
2023-03-12T20:13:47.629Z,101595.75
2023-03-12T20:16:15.031Z,101596.44
2023-03-12T20:18:42.265Z,101594.72
2023-03-12T20:21:09.629Z,101593.72
2023-03-12T20:23:37.008Z,101597.19
2023-03-12T20:26:04.066Z,101603.13
2023-03-12T20:28:31.046Z,101596.97
2023-03-12T20:30:58.080Z,101592.50
2023-03-12T20:33:25.211Z,101604.31
2023-03-12T20:35:52.563Z,101605.13
2023-03-12T20:38:20.418Z,101614.56
2023-03-12T20:40:48.261Z,101615.50
2023-03-12T20:43:15.307Z,101612.16
2023-03-12T20:45:43.075Z,101615.91
2023-03-12T20:48:11.495Z,101618.59
2023-03-12T20:50:39.409Z,101620.31
2023-03-12T20:53:07.405Z,101610.28
2023-03-12T20:55:34.592Z,101620.38
2023-03-12T20:58:01.623Z,101616.00
2023-03-12T21:00:28.645Z,101614.75
2023-03-12T21:02:55.911Z,101614.75
2023-03-12T21:05:25.204Z,101608.81
2023-03-12T21:07:54.323Z,101611.47
2023-03-12T21:10:21.631Z,101601.22
2023-03-12T21:12:48.818Z,101603.72
2023-03-12T21:15:15.836Z,101598.81
2023-03-12T21:17:43.161Z,101597.91
2023-03-12T21:20:13.589Z,101596.09
2023-03-12T21:22:44.010Z,101602.94
2023-03-12T21:29:41.266Z,101612.72
2023-03-12T21:36:32.330Z,101620.38
2023-03-12T21:39:01.171Z,101620.03
2023-03-12T21:41:28.299Z,101629.50
2023-03-12T21:43:55.452Z,101631.78
2023-03-12T21:46:26.931Z,101641.59
2023-03-12T21:48:54.022Z,101640.66
2023-03-12T21:51:22.793Z,101642.81
2023-03-12T21:53:54.454Z,101638.03
2023-03-12T21:56:21.673Z,101639.19
2023-03-12T21:58:48.936Z,101647.34
2023-03-12T22:01:17.879Z,101651.09
2023-03-12T22:03:46.130Z,101652.25
2023-03-12T22:06:14.563Z,101656.75
2023-03-12T22:08:42.170Z,101659.53
2023-03-12T22:11:10.200Z,101657.22
2023-03-12T22:13:37.525Z,101655.50
2023-03-12T22:16:07.798Z,101668.00
2023-03-12T22:18:39.971Z,101679.41
2023-03-12T22:21:10.115Z,101682.28
2023-03-12T22:23:37.665Z,101683.44
2023-03-12T22:26:06.229Z,101680.97
2023-03-12T22:28:33.501Z,101671.41
2023-03-12T22:31:02.451Z,101670.63
2023-03-12T22:33:29.913Z,101662.88
2023-03-12T22:35:58.524Z,101668.97
2023-03-12T22:38:25.725Z,101656.06
2023-03-12T22:40:55.417Z,101657.81
2023-03-12T22:43:25.151Z,101651.88
2023-03-12T22:45:55.102Z,101651.66
2023-03-12T22:48:24.795Z,101652.72
2023-03-12T22:50:59.910Z,101635.09
2023-03-12T22:53:28.178Z,101626.56
2023-03-12T22:56:04.174Z,101635.25
2023-03-12T22:58:31.220Z,101624.09
2023-03-12T23:01:06.220Z,101627.00
2023-03-12T23:03:41.583Z,101623.59
2023-03-12T23:06:36.409Z,101617.72
2023-03-12T23:09:06.461Z,101624.78
2023-03-12T23:11:33.359Z,101621.75
2023-03-12T23:14:05.033Z,101625.13
2023-03-12T23:16:36.455Z,101621.56
2023-03-12T23:19:03.435Z,101620.38
2023-03-12T23:21:31.274Z,101619.84
2023-03-12T23:24:02.265Z,101614.66
2023-03-12T23:26:38.032Z,101630.72
2023-03-12T23:29:04.810Z,101643.59
2023-03-12T23:31:32.204Z,101644.22
2023-03-12T23:33:59.432Z,101687.84
2023-03-12T23:36:26.346Z,101691.00
2023-03-12T23:38:53.279Z,101711.94
2023-03-12T23:41:23.078Z,101712.59
2023-03-12T23:43:50.602Z,101721.41
2023-03-12T23:46:17.815Z,101731.28
2023-03-12T23:48:48.341Z,101735.13
2023-03-12T23:51:16.582Z,101743.59
2023-03-12T23:53:45.300Z,101733.13
2023-03-12T23:56:17.441Z,101737.25
2023-03-12T23:58:46.713Z,101739.50
